sensor_id;sensor_type;location;lat;lon;timestamp;P1;durP1;ratioP1;P2;durP2;ratioP2
24799;SDS011;12897;50.812;4.430;2023-03-24T00:01:26;4.17;;;2.42;;
24799;SDS011;12897;50.812;4.430;2023-03-24T00:03:53;8.85;;;3.27;;
24799;SDS011;12897;50.812;4.430;2023-03-24T00:06:21;8.60;;;2.75;;
24799;SDS011;12897;50.812;4.430;2023-03-24T00:08:51;7.22;;;2.80;;
24799;SDS011;12897;50.812;4.430;2023-03-24T00:11:19;6.30;;;3.10;;
24799;SDS011;12897;50.812;4.430;2023-03-24T00:13:47;8.58;;;3.08;;
24799;SDS011;12897;50.812;4.430;2023-03-24T00:16:15;6.20;;;2.58;;
24799;SDS011;12897;50.812;4.430;2023-03-24T00:18:44;7.17;;;2.70;;
24799;SDS011;12897;50.812;4.430;2023-03-24T00:21:13;7.05;;;2.87;;
24799;SDS011;12897;50.812;4.430;2023-03-24T00:23:43;8.38;;;3.30;;
24799;SDS011;12897;50.812;4.430;2023-03-24T00:26:12;5.47;;;2.95;;
24799;SDS011;12897;50.812;4.430;2023-03-24T00:28:42;4.10;;;2.62;;
24799;SDS011;12897;50.812;4.430;2023-03-24T00:31:12;5.65;;;3.08;;
24799;SDS011;12897;50.812;4.430;2023-03-24T00:33:41;3.87;;;2.33;;
24799;SDS011;12897;50.812;4.430;2023-03-24T00:36:12;8.63;;;3.10;;
24799;SDS011;12897;50.812;4.430;2023-03-24T00:38:41;6.25;;;3.30;;
24799;SDS011;12897;50.812;4.430;2023-03-24T00:41:09;5.47;;;2.60;;
24799;SDS011;12897;50.812;4.430;2023-03-24T00:43:37;4.97;;;2.45;;
24799;SDS011;12897;50.812;4.430;2023-03-24T00:46:07;5.87;;;2.70;;
24799;SDS011;12897;50.812;4.430;2023-03-24T00:48:36;7.40;;;3.05;;
24799;SDS011;12897;50.812;4.430;2023-03-24T00:51:06;8.00;;;2.80;;
24799;SDS011;12897;50.812;4.430;2023-03-24T00:53:35;5.00;;;2.83;;
24799;SDS011;12897;50.812;4.430;2023-03-24T00:56:05;9.10;;;3.00;;
24799;SDS011;12897;50.812;4.430;2023-03-24T00:58:33;7.83;;;2.85;;
24799;SDS011;12897;50.812;4.430;2023-03-24T01:01:01;4.80;;;2.58;;
24799;SDS011;12897;50.812;4.430;2023-03-24T01:03:30;5.20;;;2.90;;
24799;SDS011;12897;50.812;4.430;2023-03-24T01:06:00;5.65;;;2.80;;
24799;SDS011;12897;50.812;4.430;2023-03-24T01:08:29;6.70;;;2.87;;
24799;SDS011;12897;50.812;4.430;2023-03-24T01:10:57;6.03;;;2.70;;
24799;SDS011;12897;50.812;4.430;2023-03-24T01:13:27;6.45;;;2.92;;
24799;SDS011;12897;50.812;4.430;2023-03-24T01:15:55;9.15;;;3.52;;
24799;SDS011;12897;50.812;4.430;2023-03-24T01:18:23;5.90;;;3.30;;
24799;SDS011;12897;50.812;4.430;2023-03-24T01:20:52;6.58;;;2.67;;
24799;SDS011;12897;50.812;4.430;2023-03-24T01:23:22;5.85;;;2.70;;
24799;SDS011;12897;50.812;4.430;2023-03-24T01:25:51;6.65;;;2.70;;
24799;SDS011;12897;50.812;4.430;2023-03-24T01:28:20;5.70;;;2.58;;
24799;SDS011;12897;50.812;4.430;2023-03-24T01:30:51;4.80;;;2.60;;
24799;SDS011;12897;50.812;4.430;2023-03-24T01:33:19;3.80;;;2.40;;
24799;SDS011;12897;50.812;4.430;2023-03-24T01:35:47;4.15;;;2.30;;
24799;SDS011;12897;50.812;4.430;2023-03-24T01:38:15;5.95;;;2.62;;
24799;SDS011;12897;50.812;4.430;2023-03-24T01:40:44;5.30;;;2.35;;
24799;SDS011;12897;50.812;4.430;2023-03-24T01:43:20;6.15;;;2.62;;
24799;SDS011;12897;50.812;4.430;2023-03-24T01:46:06;4.70;;;2.62;;
24799;SDS011;12897;50.812;4.430;2023-03-24T01:48:45;5.53;;;2.50;;
24799;SDS011;12897;50.812;4.430;2023-03-24T01:51:29;5.55;;;2.37;;
24799;SDS011;12897;50.812;4.430;2023-03-24T01:56:56;7.78;;;2.87;;
24799;SDS011;12897;50.812;4.430;2023-03-24T01:59:28;7.35;;;2.80;;
24799;SDS011;12897;50.812;4.430;2023-03-24T02:01:58;7.60;;;3.30;;
24799;SDS011;12897;50.812;4.430;2023-03-24T02:04:30;6.78;;;3.70;;
24799;SDS011;12897;50.812;4.430;2023-03-24T02:07:15;6.62;;;3.95;;
24799;SDS011;12897;50.812;4.430;2023-03-24T02:09:40;7.80;;;3.92;;
24799;SDS011;12897;50.812;4.430;2023-03-24T02:12:08;11.50;;;4.25;;
24799;SDS011;12897;50.812;4.430;2023-03-24T02:14:35;6.78;;;3.00;;
24799;SDS011;12897;50.812;4.430;2023-03-24T02:19:56;6.35;;;3.15;;
24799;SDS011;12897;50.812;4.430;2023-03-24T02:28:02;5.05;;;2.67;;
24799;SDS011;12897;50.812;4.430;2023-03-24T02:36:39;7.47;;;1.50;;
24799;SDS011;12897;50.812;4.430;2023-03-24T02:39:25;4.20;;;1.45;;
24799;SDS011;12897;50.812;4.430;2023-03-24T02:42:05;5.03;;;1.45;;
24799;SDS011;12897;50.812;4.430;2023-03-24T02:47:24;5.03;;;1.37;;
24799;SDS011;12897;50.812;4.430;2023-03-24T02:50:03;5.05;;;1.37;;
24799;SDS011;12897;50.812;4.430;2023-03-24T02:52:37;7.12;;;1.52;;
24799;SDS011;12897;50.812;4.430;2023-03-24T02:57:54;4.72;;;1.20;;
24799;SDS011;12897;50.812;4.430;2023-03-24T03:00:38;4.22;;;1.00;;
24799;SDS011;12897;50.812;4.430;2023-03-24T03:03:17;10.30;;;2.60;;
24799;SDS011;12897;50.812;4.430;2023-03-24T03:08:33;8.60;;;1.25;;
24799;SDS011;12897;50.812;4.430;2023-03-24T03:11:04;6.40;;;1.17;;
24799;SDS011;12897;50.812;4.430;2023-03-24T03:13:36;5.55;;;1.17;;
24799;SDS011;12897;50.812;4.430;2023-03-24T03:16:22;5.00;;;1.25;;
24799;SDS011;12897;50.812;4.430;2023-03-24T03:18:55;7.97;;;1.40;;
24799;SDS011;12897;50.812;4.430;2023-03-24T03:21:27;6.12;;;1.27;;
24799;SDS011;12897;50.812;4.430;2023-03-24T03:23:57;9.90;;;1.72;;
24799;SDS011;12897;50.812;4.430;2023-03-24T03:26:34;9.75;;;1.42;;
24799;SDS011;12897;50.812;4.430;2023-03-24T03:29:04;9.33;;;1.80;;
24799;SDS011;12897;50.812;4.430;2023-03-24T03:39:49;9.60;;;1.90;;
24799;SDS011;12897;50.812;4.430;2023-03-24T03:42:19;13.48;;;2.05;;
24799;SDS011;12897;50.812;4.430;2023-03-24T03:44:48;14.85;;;1.95;;
24799;SDS011;12897;50.812;4.430;2023-03-24T03:47:16;13.22;;;2.00;;
24799;SDS011;12897;50.812;4.430;2023-03-24T03:49:45;11.70;;;2.12;;
24799;SDS011;12897;50.812;4.430;2023-03-24T03:52:13;13.43;;;1.77;;
24799;SDS011;12897;50.812;4.430;2023-03-24T03:54:42;10.95;;;2.00;;
24799;SDS011;12897;50.812;4.430;2023-03-24T03:57:10;7.80;;;1.80;;
24799;SDS011;12897;50.812;4.430;2023-03-24T03:59:39;10.95;;;2.12;;
24799;SDS011;12897;50.812;4.430;2023-03-24T04:12:45;13.60;;;3.05;;
24799;SDS011;12897;50.812;4.430;2023-03-24T04:23:51;16.27;;;3.33;;
24799;SDS011;12897;50.812;4.430;2023-03-24T04:29:27;16.95;;;3.90;;
24799;SDS011;12897;50.812;4.430;2023-03-24T04:32:10;19.02;;;3.70;;
24799;SDS011;12897;50.812;4.430;2023-03-24T04:34:40;19.27;;;3.87;;
24799;SDS011;12897;50.812;4.430;2023-03-24T04:37:23;20.37;;;4.20;;
24799;SDS011;12897;50.812;4.430;2023-03-24T04:39:48;24.90;;;3.55;;
24799;SDS011;12897;50.812;4.430;2023-03-24T04:42:22;18.25;;;3.92;;
24799;SDS011;12897;50.812;4.430;2023-03-24T04:44:52;26.02;;;4.97;;
24799;SDS011;12897;50.812;4.430;2023-03-24T04:47:23;19.75;;;4.95;;
24799;SDS011;12897;50.812;4.430;2023-03-24T04:52:21;16.07;;;4.90;;
24799;SDS011;12897;50.812;4.430;2023-03-24T04:54:49;23.40;;;4.10;;
24799;SDS011;12897;50.812;4.430;2023-03-24T04:57:16;22.75;;;4.42;;
24799;SDS011;12897;50.812;4.430;2023-03-24T04:59:44;22.02;;;4.50;;
24799;SDS011;12897;50.812;4.430;2023-03-24T05:02:11;23.73;;;4.37;;
24799;SDS011;12897;50.812;4.430;2023-03-24T05:04:39;18.17;;;4.03;;
24799;SDS011;12897;50.812;4.430;2023-03-24T05:07:07;14.80;;;3.85;;
24799;SDS011;12897;50.812;4.430;2023-03-24T05:09:34;10.00;;;3.17;;
24799;SDS011;12897;50.812;4.430;2023-03-24T05:12:02;17.87;;;3.42;;
24799;SDS011;12897;50.812;4.430;2023-03-24T05:14:29;18.37;;;3.90;;
24799;SDS011;12897;50.812;4.430;2023-03-24T05:16:57;17.75;;;4.33;;
24799;SDS011;12897;50.812;4.430;2023-03-24T05:19:24;18.75;;;3.15;;
24799;SDS011;12897;50.812;4.430;2023-03-24T05:21:52;22.75;;;3.27;;
24799;SDS011;12897;50.812;4.430;2023-03-24T05:24:20;17.55;;;3.02;;
24799;SDS011;12897;50.812;4.430;2023-03-24T05:26:48;15.63;;;3.25;;
24799;SDS011;12897;50.812;4.430;2023-03-24T05:29:17;21.45;;;3.15;;
24799;SDS011;12897;50.812;4.430;2023-03-24T05:31:45;19.77;;;3.10;;
24799;SDS011;12897;50.812;4.430;2023-03-24T05:34:13;18.62;;;3.15;;
24799;SDS011;12897;50.812;4.430;2023-03-24T05:36:40;19.02;;;3.10;;
24799;SDS011;12897;50.812;4.430;2023-03-24T05:39:08;15.13;;;2.98;;
24799;SDS011;12897;50.812;4.430;2023-03-24T05:41:35;19.77;;;3.10;;
24799;SDS011;12897;50.812;4.430;2023-03-24T05:44:04;18.37;;;2.90;;
24799;SDS011;12897;50.812;4.430;2023-03-24T05:46:31;22.95;;;3.60;;
24799;SDS011;12897;50.812;4.430;2023-03-24T05:49:01;18.92;;;2.90;;
24799;SDS011;12897;50.812;4.430;2023-03-24T05:51:28;17.15;;;3.17;;
24799;SDS011;12897;50.812;4.430;2023-03-24T05:53:57;16.50;;;2.75;;
24799;SDS011;12897;50.812;4.430;2023-03-24T05:56:25;16.55;;;2.85;;
24799;SDS011;12897;50.812;4.430;2023-03-24T05:58:52;27.30;;;3.90;;
24799;SDS011;12897;50.812;4.430;2023-03-24T06:01:20;19.50;;;3.42;;
24799;SDS011;12897;50.812;4.430;2023-03-24T06:03:48;20.52;;;2.70;;
24799;SDS011;12897;50.812;4.430;2023-03-24T06:06:16;19.07;;;3.00;;
24799;SDS011;12897;50.812;4.430;2023-03-24T06:08:44;19.00;;;3.17;;
24799;SDS011;12897;50.812;4.430;2023-03-24T06:11:13;24.85;;;3.52;;
24799;SDS011;12897;50.812;4.430;2023-03-24T06:16:08;21.37;;;3.08;;
24799;SDS011;12897;50.812;4.430;2023-03-24T06:18:36;18.02;;;2.45;;
24799;SDS011;12897;50.812;4.430;2023-03-24T06:23:33;24.43;;;3.40;;
24799;SDS011;12897;50.812;4.430;2023-03-24T06:26:00;18.32;;;3.15;;
24799;SDS011;12897;50.812;4.430;2023-03-24T06:28:29;19.02;;;2.60;;
24799;SDS011;12897;50.812;4.430;2023-03-24T06:30:59;15.75;;;3.30;;
24799;SDS011;12897;50.812;4.430;2023-03-24T06:33:26;19.95;;;3.05;;
24799;SDS011;12897;50.812;4.430;2023-03-24T06:35:54;18.65;;;2.92;;
24799;SDS011;12897;50.812;4.430;2023-03-24T06:38:22;16.62;;;3.02;;
24799;SDS011;12897;50.812;4.430;2023-03-24T06:40:49;14.98;;;2.95;;
24799;SDS011;12897;50.812;4.430;2023-03-24T06:43:17;15.48;;;3.95;;
24799;SDS011;12897;50.812;4.430;2023-03-24T06:45:44;17.73;;;2.95;;
24799;SDS011;12897;50.812;4.430;2023-03-24T06:48:12;25.23;;;3.47;;
24799;SDS011;12897;50.812;4.430;2023-03-24T06:50:40;16.10;;;2.90;;
24799;SDS011;12897;50.812;4.430;2023-03-24T06:53:07;14.87;;;2.37;;
24799;SDS011;12897;50.812;4.430;2023-03-24T06:55:35;18.67;;;3.02;;
24799;SDS011;12897;50.812;4.430;2023-03-24T06:58:02;22.95;;;3.58;;
24799;SDS011;12897;50.812;4.430;2023-03-24T07:00:32;20.20;;;3.02;;
24799;SDS011;12897;50.812;4.430;2023-03-24T07:03:00;18.55;;;3.22;;
24799;SDS011;12897;50.812;4.430;2023-03-24T07:05:28;21.30;;;3.85;;
24799;SDS011;12897;50.812;4.430;2023-03-24T07:07:57;16.80;;;3.72;;
24799;SDS011;12897;50.812;4.430;2023-03-24T07:10:26;26.12;;;3.83;;
24799;SDS011;12897;50.812;4.430;2023-03-24T07:12:53;16.23;;;3.10;;
24799;SDS011;12897;50.812;4.430;2023-03-24T07:15:22;20.85;;;5.70;;
24799;SDS011;12897;50.812;4.430;2023-03-24T07:17:50;20.48;;;3.02;;
24799;SDS011;12897;50.812;4.430;2023-03-24T07:20:18;22.05;;;3.30;;
24799;SDS011;12897;50.812;4.430;2023-03-24T07:22:46;17.67;;;2.92;;
24799;SDS011;12897;50.812;4.430;2023-03-24T07:25:14;11.28;;;2.40;;
24799;SDS011;12897;50.812;4.430;2023-03-24T07:27:43;15.80;;;2.98;;
24799;SDS011;12897;50.812;4.430;2023-03-24T07:30:11;18.45;;;3.08;;
24799;SDS011;12897;50.812;4.430;2023-03-24T07:32:39;21.17;;;3.33;;
24799;SDS011;12897;50.812;4.430;2023-03-24T07:35:09;17.87;;;3.00;;
24799;SDS011;12897;50.812;4.430;2023-03-24T07:37:38;18.30;;;2.87;;
24799;SDS011;12897;50.812;4.430;2023-03-24T07:40:06;17.23;;;3.02;;
24799;SDS011;12897;50.812;4.430;2023-03-24T07:42:37;11.50;;;2.40;;
24799;SDS011;12897;50.812;4.430;2023-03-24T07:45:07;16.85;;;3.42;;
24799;SDS011;12897;50.812;4.430;2023-03-24T07:47:37;23.32;;;2.75;;
24799;SDS011;12897;50.812;4.430;2023-03-24T07:50:05;18.17;;;2.80;;
24799;SDS011;12897;50.812;4.430;2023-03-24T07:52:38;15.63;;;2.80;;
24799;SDS011;12897;50.812;4.430;2023-03-24T07:55:09;16.62;;;2.45;;
24799;SDS011;12897;50.812;4.430;2023-03-24T07:57:39;23.22;;;2.90;;
24799;SDS011;12897;50.812;4.430;2023-03-24T08:00:08;18.73;;;2.70;;
24799;SDS011;12897;50.812;4.430;2023-03-24T08:02:47;22.87;;;2.92;;
24799;SDS011;12897;50.812;4.430;2023-03-24T08:05:20;20.50;;;3.25;;
24799;SDS011;12897;50.812;4.430;2023-03-24T08:07:50;18.45;;;2.90;;
24799;SDS011;12897;50.812;4.430;2023-03-24T08:10:27;20.77;;;2.98;;
24799;SDS011;12897;50.812;4.430;2023-03-24T08:12:55;19.15;;;2.62;;
24799;SDS011;12897;50.812;4.430;2023-03-24T08:15:24;18.42;;;2.83;;
24799;SDS011;12897;50.812;4.430;2023-03-24T08:17:53;24.20;;;3.27;;
24799;SDS011;12897;50.812;4.430;2023-03-24T08:20:21;17.70;;;2.25;;
24799;SDS011;12897;50.812;4.430;2023-03-24T08:22:51;13.95;;;2.08;;
24799;SDS011;12897;50.812;4.430;2023-03-24T08:25:20;21.62;;;3.15;;
24799;SDS011;12897;50.812;4.430;2023-03-24T08:30:18;19.17;;;2.50;;
24799;SDS011;12897;50.812;4.430;2023-03-24T08:32:48;24.63;;;7.65;;
24799;SDS011;12897;50.812;4.430;2023-03-24T08:35:19;19.82;;;2.77;;
24799;SDS011;12897;50.812;4.430;2023-03-24T08:37:49;11.03;;;2.37;;
24799;SDS011;12897;50.812;4.430;2023-03-24T08:40:18;21.65;;;2.62;;
24799;SDS011;12897;50.812;4.430;2023-03-24T08:42:52;15.15;;;3.00;;
24799;SDS011;12897;50.812;4.430;2023-03-24T08:45:22;15.75;;;2.40;;
24799;SDS011;12897;50.812;4.430;2023-03-24T08:47:52;24.75;;;4.45;;
24799;SDS011;12897;50.812;4.430;2023-03-24T08:50:22;21.85;;;3.37;;
24799;SDS011;12897;50.812;4.430;2023-03-24T08:52:53;15.32;;;2.85;;
24799;SDS011;12897;50.812;4.430;2023-03-24T08:55:22;18.17;;;3.52;;
24799;SDS011;12897;50.812;4.430;2023-03-24T08:57:52;17.42;;;3.60;;
24799;SDS011;12897;50.812;4.430;2023-03-24T09:00:20;21.17;;;3.75;;
24799;SDS011;12897;50.812;4.430;2023-03-24T09:02:50;17.23;;;3.08;;
24799;SDS011;12897;50.812;4.430;2023-03-24T09:05:20;22.35;;;3.95;;
24799;SDS011;12897;50.812;4.430;2023-03-24T09:07:49;16.20;;;3.30;;
24799;SDS011;12897;50.812;4.430;2023-03-24T09:10:17;16.05;;;2.75;;
24799;SDS011;12897;50.812;4.430;2023-03-24T09:12:47;18.05;;;3.20;;
24799;SDS011;12897;50.812;4.430;2023-03-24T09:15:15;19.92;;;3.87;;
24799;SDS011;12897;50.812;4.430;2023-03-24T09:17:42;25.05;;;3.25;;
24799;SDS011;12897;50.812;4.430;2023-03-24T09:20:12;15.38;;;2.50;;
24799;SDS011;12897;50.812;4.430;2023-03-24T09:22:41;24.85;;;2.75;;
24799;SDS011;12897;50.812;4.430;2023-03-24T09:25:11;17.37;;;2.90;;
24799;SDS011;12897;50.812;4.430;2023-03-24T09:27:40;12.98;;;2.62;;
24799;SDS011;12897;50.812;4.430;2023-03-24T09:30:09;19.77;;;2.50;;
24799;SDS011;12897;50.812;4.430;2023-03-24T09:32:42;26.00;;;3.40;;
24799;SDS011;12897;50.812;4.430;2023-03-24T09:35:07;16.97;;;3.07;;
24799;SDS011;12897;50.812;4.430;2023-03-24T09:37:35;12.68;;;2.50;;
24799;SDS011;12897;50.812;4.430;2023-03-24T09:40:04;17.65;;;3.12;;
24799;SDS011;12897;50.812;4.430;2023-03-24T09:42:37;12.98;;;2.60;;
24799;SDS011;12897;50.812;4.430;2023-03-24T09:45:04;11.08;;;2.83;;
24799;SDS011;12897;50.812;4.430;2023-03-24T09:47:35;17.02;;;2.30;;
24799;SDS011;12897;50.812;4.430;2023-03-24T09:50:14;18.92;;;3.65;;
24799;SDS011;12897;50.812;4.430;2023-03-24T09:52:52;13.65;;;2.40;;
24799;SDS011;12897;50.812;4.430;2023-03-24T09:55:25;14.50;;;2.50;;
24799;SDS011;12897;50.812;4.430;2023-03-24T09:58:03;15.95;;;2.10;;
24799;SDS011;12897;50.812;4.430;2023-03-24T10:00:35;17.32;;;3.17;;
24799;SDS011;12897;50.812;4.430;2023-03-24T10:03:21;13.32;;;2.37;;
24799;SDS011;12897;50.812;4.430;2023-03-24T10:05:47;13.97;;;3.10;;
24799;SDS011;12897;50.812;4.430;2023-03-24T10:16:22;15.83;;;2.67;;
24799;SDS011;12897;50.812;4.430;2023-03-24T10:19:03;16.23;;;2.50;;
24799;SDS011;12897;50.812;4.430;2023-03-24T10:21:51;15.28;;;2.92;;
24799;SDS011;12897;50.812;4.430;2023-03-24T10:24:31;19.05;;;3.02;;
24799;SDS011;12897;50.812;4.430;2023-03-24T10:32:28;23.85;;;3.27;;
24799;SDS011;12897;50.812;4.430;2023-03-24T10:34:59;14.15;;;2.92;;
24799;SDS011;12897;50.812;4.430;2023-03-24T10:37:29;18.15;;;3.00;;
24799;SDS011;12897;50.812;4.430;2023-03-24T10:39:57;18.85;;;3.15;;
24799;SDS011;12897;50.812;4.430;2023-03-24T10:42:27;13.93;;;2.80;;
24799;SDS011;12897;50.812;4.430;2023-03-24T10:44:56;15.10;;;2.52;;
24799;SDS011;12897;50.812;4.430;2023-03-24T10:47:26;17.37;;;2.65;;
24799;SDS011;12897;50.812;4.430;2023-03-24T10:49:57;16.25;;;3.22;;
24799;SDS011;12897;50.812;4.430;2023-03-24T10:52:36;16.97;;;3.15;;
24799;SDS011;12897;50.812;4.430;2023-03-24T10:55:12;16.48;;;2.33;;
24799;SDS011;12897;50.812;4.430;2023-03-24T10:57:39;16.05;;;2.47;;
24799;SDS011;12897;50.812;4.430;2023-03-24T11:00:21;17.40;;;3.37;;
24799;SDS011;12897;50.812;4.430;2023-03-24T11:02:51;14.07;;;2.70;;
24799;SDS011;12897;50.812;4.430;2023-03-24T11:05:24;19.65;;;3.02;;
24799;SDS011;12897;50.812;4.430;2023-03-24T11:07:54;19.25;;;2.95;;
24799;SDS011;12897;50.812;4.430;2023-03-24T11:10:42;13.45;;;2.30;;
24799;SDS011;12897;50.812;4.430;2023-03-24T11:13:17;12.00;;;2.62;;
24799;SDS011;12897;50.812;4.430;2023-03-24T11:18:25;17.43;;;2.50;;
24799;SDS011;12897;50.812;4.430;2023-03-24T11:21:00;14.87;;;2.60;;
24799;SDS011;12897;50.812;4.430;2023-03-24T11:23:33;11.15;;;2.50;;
24799;SDS011;12897;50.812;4.430;2023-03-24T11:26:08;12.93;;;2.87;;
24799;SDS011;12897;50.812;4.430;2023-03-24T11:28:54;18.35;;;2.52;;
24799;SDS011;12897;50.812;4.430;2023-03-24T11:31:26;13.65;;;2.80;;
24799;SDS011;12897;50.812;4.430;2023-03-24T11:33:58;12.70;;;2.20;;
24799;SDS011;12897;50.812;4.430;2023-03-24T11:39:08;11.73;;;2.55;;
24799;SDS011;12897;50.812;4.430;2023-03-24T11:41:36;12.68;;;2.60;;
24799;SDS011;12897;50.812;4.430;2023-03-24T11:44:18;15.08;;;2.35;;
24799;SDS011;12897;50.812;4.430;2023-03-24T11:46:50;16.97;;;2.42;;
24799;SDS011;12897;50.812;4.430;2023-03-24T11:49:24;17.30;;;2.47;;
24799;SDS011;12897;50.812;4.430;2023-03-24T11:51:53;21.68;;;6.62;;
24799;SDS011;12897;50.812;4.430;2023-03-24T11:54:23;17.25;;;2.47;;
24799;SDS011;12897;50.812;4.430;2023-03-24T11:56:58;16.93;;;2.20;;
24799;SDS011;12897;50.812;4.430;2023-03-24T12:05:16;17.57;;;2.92;;
24799;SDS011;12897;50.812;4.430;2023-03-24T12:10:42;15.03;;;2.70;;
24799;SDS011;12897;50.812;4.430;2023-03-24T12:13:38;12.53;;;2.33;;
24799;SDS011;12897;50.812;4.430;2023-03-24T12:16:20;14.28;;;2.50;;
24799;SDS011;12897;50.812;4.430;2023-03-24T12:18:56;14.33;;;2.50;;
24799;SDS011;12897;50.812;4.430;2023-03-24T12:21:47;8.28;;;2.10;;
24799;SDS011;12897;50.812;4.430;2023-03-24T12:27:01;14.63;;;2.80;;
24799;SDS011;12897;50.812;4.430;2023-03-24T12:32:15;16.87;;;2.62;;
24799;SDS011;12897;50.812;4.430;2023-03-24T12:45:44;15.45;;;2.60;;
24799;SDS011;12897;50.812;4.430;2023-03-24T12:48:38;11.08;;;1.77;;
24799;SDS011;12897;50.812;4.430;2023-03-24T12:51:33;9.45;;;1.95;;
24799;SDS011;12897;50.812;4.430;2023-03-24T12:56:31;13.83;;;2.17;;
24799;SDS011;12897;50.812;4.430;2023-03-24T12:59:02;10.10;;;2.10;;
24799;SDS011;12897;50.812;4.430;2023-03-24T13:01:35;16.82;;;2.47;;
24799;SDS011;12897;50.812;4.430;2023-03-24T13:04:20;14.83;;;2.20;;
24799;SDS011;12897;50.812;4.430;2023-03-24T13:06:51;18.70;;;2.77;;
24799;SDS011;12897;50.812;4.430;2023-03-24T13:12:25;19.48;;;3.08;;
24799;SDS011;12897;50.812;4.430;2023-03-24T13:14:52;12.00;;;2.77;;
24799;SDS011;12897;50.812;4.430;2023-03-24T13:17:40;16.50;;;3.33;;
24799;SDS011;12897;50.812;4.430;2023-03-24T13:20:21;15.50;;;1.87;;
24799;SDS011;12897;50.812;4.430;2023-03-24T13:22:48;7.97;;;1.62;;
24799;SDS011;12897;50.812;4.430;2023-03-24T13:25:30;9.73;;;1.92;;
24799;SDS011;12897;50.812;4.430;2023-03-24T13:27:59;9.55;;;1.77;;
24799;SDS011;12897;50.812;4.430;2023-03-24T13:30:31;4.97;;;1.77;;
24799;SDS011;12897;50.812;4.430;2023-03-24T13:41:02;11.05;;;1.67;;
24799;SDS011;12897;50.812;4.430;2023-03-24T13:43:31;11.35;;;1.60;;
24799;SDS011;12897;50.812;4.430;2023-03-24T13:46:06;11.70;;;1.80;;
24799;SDS011;12897;50.812;4.430;2023-03-24T13:48:37;10.25;;;1.62;;
24799;SDS011;12897;50.812;4.430;2023-03-24T13:51:13;8.13;;;2.35;;
24799;SDS011;12897;50.812;4.430;2023-03-24T13:53:51;7.47;;;1.60;;
24799;SDS011;12897;50.812;4.430;2023-03-24T13:56:36;12.35;;;2.90;;
24799;SDS011;12897;50.812;4.430;2023-03-24T14:02:20;12.63;;;2.00;;
24799;SDS011;12897;50.812;4.430;2023-03-24T14:10:01;12.53;;;2.20;;
24799;SDS011;12897;50.812;4.430;2023-03-24T14:12:31;9.13;;;1.60;;
24799;SDS011;12897;50.812;4.430;2023-03-24T14:15:10;6.55;;;1.72;;
24799;SDS011;12897;50.812;4.430;2023-03-24T14:17:32;8.85;;;2.25;;
24799;SDS011;12897;50.812;4.430;2023-03-24T14:22:38;15.63;;;2.27;;
24799;SDS011;12897;50.812;4.430;2023-03-24T14:27:45;11.22;;;2.10;;
24799;SDS011;12897;50.812;4.430;2023-03-24T14:32:51;14.93;;;2.72;;
24799;SDS011;12897;50.812;4.430;2023-03-24T14:35:31;13.72;;;2.45;;
24799;SDS011;12897;50.812;4.430;2023-03-24T14:38:04;7.35;;;2.17;;
24799;SDS011;12897;50.812;4.430;2023-03-24T14:40:39;11.25;;;1.60;;
24799;SDS011;12897;50.812;4.430;2023-03-24T14:44:09;9.20;;;2.35;;
24799;SDS011;12897;50.812;4.430;2023-03-24T14:45:57;11.05;;;2.42;;
24799;SDS011;12897;50.812;4.430;2023-03-24T14:48:34;5.80;;;1.42;;
24799;SDS011;12897;50.812;4.430;2023-03-24T14:53:58;8.00;;;1.52;;
24799;SDS011;12897;50.812;4.430;2023-03-24T14:56:27;7.87;;;1.62;;
24799;SDS011;12897;50.812;4.430;2023-03-24T14:59:04;7.90;;;1.65;;
24799;SDS011;12897;50.812;4.430;2023-03-24T15:01:36;5.03;;;1.05;;
24799;SDS011;12897;50.812;4.430;2023-03-24T15:04:06;6.15;;;1.42;;
24799;SDS011;12897;50.812;4.430;2023-03-24T15:06:32;7.40;;;1.35;;
24799;SDS011;12897;50.812;4.430;2023-03-24T15:09:15;10.68;;;1.40;;
24799;SDS011;12897;50.812;4.430;2023-03-24T15:11:44;9.88;;;1.62;;
24799;SDS011;12897;50.812;4.430;2023-03-24T15:16:56;6.45;;;1.92;;
24799;SDS011;12897;50.812;4.430;2023-03-24T15:19:29;5.50;;;1.47;;
24799;SDS011;12897;50.812;4.430;2023-03-24T15:22:04;6.95;;;1.17;;
24799;SDS011;12897;50.812;4.430;2023-03-24T15:24:34;10.10;;;2.05;;
24799;SDS011;12897;50.812;4.430;2023-03-24T15:29:37;7.95;;;1.52;;
24799;SDS011;12897;50.812;4.430;2023-03-24T15:32:08;6.00;;;1.37;;
24799;SDS011;12897;50.812;4.430;2023-03-24T15:34:40;8.30;;;1.32;;
24799;SDS011;12897;50.812;4.430;2023-03-24T15:40:02;7.75;;;1.32;;
24799;SDS011;12897;50.812;4.430;2023-03-24T15:42:31;9.85;;;1.80;;
24799;SDS011;12897;50.812;4.430;2023-03-24T15:45:17;8.40;;;1.70;;
24799;SDS011;12897;50.812;4.430;2023-03-24T15:47:37;13.55;;;1.72;;
24799;SDS011;12897;50.812;4.430;2023-03-24T15:50:26;4.78;;;1.37;;
24799;SDS011;12897;50.812;4.430;2023-03-24T15:52:37;7.25;;;2.02;;
24799;SDS011;12897;50.812;4.430;2023-03-24T15:55:07;7.17;;;1.70;;
24799;SDS011;12897;50.812;4.430;2023-03-24T15:57:39;11.48;;;2.08;;
24799;SDS011;12897;50.812;4.430;2023-03-24T16:00:17;9.35;;;2.00;;
24799;SDS011;12897;50.812;4.430;2023-03-24T16:02:46;6.85;;;1.50;;
24799;SDS011;12897;50.812;4.430;2023-03-24T16:05:21;8.28;;;1.98;;
24799;SDS011;12897;50.812;4.430;2023-03-24T16:07:57;7.20;;;1.65;;
24799;SDS011;12897;50.812;4.430;2023-03-24T16:10:27;10.90;;;1.80;;
24799;SDS011;12897;50.812;4.430;2023-03-24T16:13:19;7.60;;;1.57;;
24799;SDS011;12897;50.812;4.430;2023-03-24T16:15:58;7.50;;;1.87;;
24799;SDS011;12897;50.812;4.430;2023-03-24T16:18:29;11.20;;;2.40;;
24799;SDS011;12897;50.812;4.430;2023-03-24T16:21:04;25.60;;;2.65;;
24799;SDS011;12897;50.812;4.430;2023-03-24T16:23:37;12.23;;;1.98;;
24799;SDS011;12897;50.812;4.430;2023-03-24T16:26:17;14.23;;;2.35;;
24799;SDS011;12897;50.812;4.430;2023-03-24T16:28:44;19.02;;;2.90;;
24799;SDS011;12897;50.812;4.430;2023-03-24T16:31:36;9.50;;;2.05;;
24799;SDS011;12897;50.812;4.430;2023-03-24T16:33:51;17.30;;;2.87;;
24799;SDS011;12897;50.812;4.430;2023-03-24T16:36:20;12.87;;;2.33;;
24799;SDS011;12897;50.812;4.430;2023-03-24T16:38:50;16.27;;;3.02;;
24799;SDS011;12897;50.812;4.430;2023-03-24T16:41:18;17.20;;;3.17;;
24799;SDS011;12897;50.812;4.430;2023-03-24T16:43:46;9.28;;;2.52;;
24799;SDS011;12897;50.812;4.430;2023-03-24T16:46:17;14.45;;;2.62;;
24799;SDS011;12897;50.812;4.430;2023-03-24T16:48:47;12.37;;;2.45;;
24799;SDS011;12897;50.812;4.430;2023-03-24T16:51:15;10.40;;;2.25;;
24799;SDS011;12897;50.812;4.430;2023-03-24T16:53:44;12.13;;;2.70;;
24799;SDS011;12897;50.812;4.430;2023-03-24T16:56:13;14.47;;;2.77;;
24799;SDS011;12897;50.812;4.430;2023-03-24T16:58:42;9.63;;;2.00;;
24799;SDS011;12897;50.812;4.430;2023-03-24T17:01:13;6.40;;;1.95;;
24799;SDS011;12897;50.812;4.430;2023-03-24T17:03:46;9.70;;;1.87;;
24799;SDS011;12897;50.812;4.430;2023-03-24T17:06:14;5.17;;;1.70;;
24799;SDS011;12897;50.812;4.430;2023-03-24T17:08:43;5.08;;;1.20;;
24799;SDS011;12897;50.812;4.430;2023-03-24T17:11:10;10.40;;;2.00;;
24799;SDS011;12897;50.812;4.430;2023-03-24T17:13:38;9.60;;;1.57;;
24799;SDS011;12897;50.812;4.430;2023-03-24T17:16:08;7.58;;;1.42;;
24799;SDS011;12897;50.812;4.430;2023-03-24T17:18:35;7.40;;;1.95;;
24799;SDS011;12897;50.812;4.430;2023-03-24T17:21:14;10.58;;;1.75;;
24799;SDS011;12897;50.812;4.430;2023-03-24T17:23:45;6.30;;;1.15;;
24799;SDS011;12897;50.812;4.430;2023-03-24T17:26:14;4.45;;;0.90;;
24799;SDS011;12897;50.812;4.430;2023-03-24T17:31:31;4.83;;;1.30;;
24799;SDS011;12897;50.812;4.430;2023-03-24T17:33:59;1.90;;;0.77;;
24799;SDS011;12897;50.812;4.430;2023-03-24T17:36:26;3.75;;;1.22;;